createdAt,value
2022-10-30T00:00:42.078Z,100717.31
2022-10-30T00:03:13.002Z,100723.38
2022-10-30T00:05:44.277Z,100729.47
2022-10-30T00:08:13.173Z,100727.50
2022-10-30T00:10:41.944Z,100717.59
2022-10-30T00:13:09.945Z,100720.97
2022-10-30T00:15:37.941Z,100719.53
2022-10-30T00:18:06.137Z,100716.13
2022-10-30T00:20:33.957Z,100731.94
2022-10-30T00:23:03.137Z,100726.41
2022-10-30T00:25:30.980Z,100725.69
2022-10-30T00:27:58.767Z,100725.66
2022-10-30T00:30:26.503Z,100725.91
2022-10-30T00:32:54.250Z,100720.72
2022-10-30T00:35:22.095Z,100707.47
2022-10-30T00:37:49.853Z,100710.97
2022-10-30T00:40:19.889Z,100720.13
2022-10-30T00:42:47.788Z,100720.97
2022-10-30T00:45:19.347Z,100727.19
2022-10-30T00:47:53.471Z,100720.72
2022-10-30T00:53:04.635Z,100709.31
2022-10-30T00:55:37.089Z,100713.78
2022-10-30T00:58:07.849Z,100716.34
2022-10-30T01:00:38.204Z,100709.31
2022-10-30T01:03:07.019Z,100712.94
2022-10-30T01:05:35.398Z,100711.09
2022-10-30T01:08:03.175Z,100702.25
2022-10-30T01:10:31.428Z,100702.25
2022-10-30T01:13:01.895Z,100707.59
2022-10-30T01:15:34.756Z,100702.25
2022-10-30T01:18:14.445Z,100702.25
2022-10-30T01:21:15.740Z,100698.72
2022-10-30T01:23:55.032Z,100700.28
2022-10-30T01:26:34.218Z,100693.25
2022-10-30T01:29:16.183Z,100699.13
2022-10-30T01:31:58.250Z,100696.63
2022-10-30T01:34:35.530Z,100697.72
2022-10-30T01:37:07.492Z,100697.59
2022-10-30T01:39:37.984Z,100696.19
2022-10-30T01:42:11.522Z,100689.09
2022-10-30T01:44:40.958Z,100682.06
2022-10-30T01:47:22.763Z,100675.88
2022-10-30T01:50:15.964Z,100677.97
2022-10-30T01:52:47.585Z,100686.00
2022-10-30T01:55:30.731Z,100680.78
2022-10-30T01:58:07.063Z,100697.13
2022-10-30T02:00:39.155Z,100694.59
2022-10-30T02:03:07.780Z,100690.63
2022-10-30T02:05:40.975Z,100681.03
2022-10-30T02:08:08.745Z,100682.16
2022-10-30T02:10:38.073Z,100684.97
2022-10-30T02:13:06.151Z,100678.47
2022-10-30T02:15:34.795Z,100678.88
2022-10-30T02:18:04.371Z,100679.00
2022-10-30T02:20:33.946Z,100684.47
2022-10-30T02:23:02.189Z,100679.25
2022-10-30T02:25:30.192Z,100679.41
2022-10-30T02:27:57.969Z,100686.16
2022-10-30T02:30:25.755Z,100688.22
2022-10-30T02:32:53.539Z,100685.22
2022-10-30T02:35:21.336Z,100691.66
2022-10-30T02:37:50.747Z,100687.44
2022-10-30T02:40:18.576Z,100701.09
2022-10-30T02:42:46.407Z,100699.38
2022-10-30T02:45:14.247Z,100694.03
2022-10-30T02:47:42.042Z,100688.09
2022-10-30T02:50:11.029Z,100685.41
2022-10-30T02:52:38.771Z,100679.34
2022-10-30T02:55:08.670Z,100681.19
2022-10-30T02:57:36.582Z,100675.84
2022-10-30T03:00:05.344Z,100676.81
2022-10-30T03:02:33.157Z,100678.41
2022-10-30T03:05:01.011Z,100673.19
2022-10-30T03:07:28.814Z,100672.22
2022-10-30T03:09:56.577Z,100682.75
2022-10-30T03:12:25.792Z,100679.22
2022-10-30T03:14:53.615Z,100673.06
2022-10-30T03:17:21.363Z,100680.06
2022-10-30T03:19:49.165Z,100675.72
2022-10-30T03:22:16.943Z,100680.22
2022-10-30T03:24:44.701Z,100679.34
2022-10-30T03:27:12.515Z,100676.09
2022-10-30T03:29:41.777Z,100682.56
2022-10-30T03:32:11.667Z,100677.50
2022-10-30T03:34:39.523Z,100684.09
2022-10-30T03:37:07.300Z,100685.47
2022-10-30T03:39:35.213Z,100679.66
2022-10-30T03:42:02.942Z,100687.06
2022-10-30T03:44:30.696Z,100692.69
2022-10-30T03:46:59.904Z,100686.88
2022-10-30T03:49:27.754Z,100688.72
2022-10-30T03:51:55.483Z,100684.84
2022-10-30T03:54:23.265Z,100690.59
2022-10-30T03:56:51.035Z,100693.38
2022-10-30T03:59:18.826Z,100692.31
2022-10-30T04:01:46.676Z,100698.38
2022-10-30T04:04:16.180Z,100701.16
2022-10-30T04:06:44.047Z,100700.56
2022-10-30T04:09:12.109Z,100698.28
2022-10-30T04:11:39.939Z,100698.41
2022-10-30T04:14:07.804Z,100699.63
2022-10-30T04:16:35.581Z,100701.47
2022-10-30T04:19:03.340Z,100694.69
2022-10-30T04:21:32.531Z,100696.63
2022-10-30T04:24:00.309Z,100705.00
2022-10-30T04:26:28.063Z,100705.16
2022-10-30T04:28:55.826Z,100705.41
2022-10-30T04:31:23.589Z,100701.03
2022-10-30T04:33:51.406Z,100706.38
2022-10-30T04:36:19.320Z,100708.31
2022-10-30T04:38:48.499Z,100705.66
2022-10-30T04:41:16.308Z,100702.41
2022-10-30T04:43:44.130Z,100702.75
2022-10-30T04:46:11.939Z,100701.59
2022-10-30T04:48:40.863Z,100705.50
2022-10-30T04:51:09.393Z,100699.41
2022-10-30T04:53:37.278Z,100696.03
2022-10-30T04:56:07.424Z,100708.50
2022-10-30T04:58:35.245Z,100703.44
2022-10-30T05:01:03.640Z,100706.81
2022-10-30T05:03:31.587Z,100697.25
2022-10-30T05:06:02.073Z,100689.47
2022-10-30T05:08:30.868Z,100695.22
2022-10-30T05:10:58.948Z,100699.34
2022-10-30T05:13:28.138Z,100702.25
2022-10-30T05:15:56.481Z,100700.41
2022-10-30T05:18:24.273Z,100696.69
2022-10-30T05:20:52.113Z,100696.44
2022-10-30T05:23:19.919Z,100693.16
2022-10-30T05:25:47.663Z,100684.31
2022-10-30T05:28:15.776Z,100686.59
2022-10-30T05:30:44.992Z,100695.59
2022-10-30T05:33:15.935Z,100690.38
2022-10-30T05:35:43.752Z,100682.47
2022-10-30T05:38:11.851Z,100688.81
2022-10-30T05:40:39.935Z,100691.69
2022-10-30T05:43:07.702Z,100707.22
2022-10-30T05:45:35.493Z,100710.50
2022-10-30T05:48:06.753Z,100706.72
2022-10-30T05:50:35.054Z,100701.53
2022-10-30T05:53:05.356Z,100698.84
2022-10-30T05:55:33.493Z,100703.47
2022-10-30T05:58:02.818Z,100704.53
2022-10-30T06:00:33.762Z,100703.69
2022-10-30T06:03:02.863Z,100704.28
2022-10-30T06:05:34.376Z,100700.91
2022-10-30T06:08:02.543Z,100706.47
2022-10-30T06:10:30.623Z,100703.22
2022-10-30T06:13:00.480Z,100706.94
2022-10-30T06:15:29.756Z,100708.97
2022-10-30T06:17:58.481Z,100711.06
2022-10-30T06:20:29.056Z,100717.31
2022-10-30T06:22:59.586Z,100709.56
2022-10-30T06:25:28.570Z,100713.16
2022-10-30T06:27:57.006Z,100716.31
2022-10-30T06:30:25.396Z,100711.13
2022-10-30T06:32:58.564Z,100714.97
2022-10-30T06:35:26.789Z,100713.38
2022-10-30T06:37:56.215Z,100713.38
2022-10-30T06:40:26.137Z,100720.31
2022-10-30T06:42:55.600Z,100718.69
2022-10-30T06:45:24.868Z,100723.81
2022-10-30T06:47:52.747Z,100716.44
2022-10-30T06:50:22.318Z,100720.09
2022-10-30T06:52:50.444Z,100723.50
2022-10-30T06:55:18.917Z,100723.03
2022-10-30T06:57:54.242Z,100724.59
2022-10-30T07:00:22.359Z,100727.53
2022-10-30T07:02:57.729Z,100722.44
2022-10-30T07:05:25.696Z,100733.50
2022-10-30T07:07:53.493Z,100734.97
2022-10-30T07:10:21.285Z,100738.97
2022-10-30T07:12:54.668Z,100736.06
2022-10-30T07:15:22.759Z,100729.63
2022-10-30T07:17:58.099Z,100730.25
2022-10-30T07:20:27.455Z,100736.31
2022-10-30T07:22:55.383Z,100739.59
2022-10-30T07:25:23.785Z,100745.53
2022-10-30T07:27:54.286Z,100737.16
2022-10-30T07:30:24.361Z,100738.63
2022-10-30T07:32:59.978Z,100735.13
2022-10-30T07:35:28.669Z,100741.06
2022-10-30T07:37:56.845Z,100734.03
2022-10-30T07:40:24.735Z,100739.75
2022-10-30T07:42:58.895Z,100741.66
2022-10-30T07:45:27.041Z,100740.44
2022-10-30T07:47:55.635Z,100741.78
2022-10-30T07:50:23.846Z,100747.00
2022-10-30T07:52:51.724Z,100741.41
2022-10-30T07:55:19.605Z,100747.38
2022-10-30T07:57:47.416Z,100751.75
2022-10-30T08:00:18.293Z,100748.59
2022-10-30T08:02:50.414Z,100750.50
2022-10-30T08:05:18.997Z,100754.06
2022-10-30T08:07:48.149Z,100750.16
2022-10-30T08:10:16.266Z,100752.06
2022-10-30T08:12:45.809Z,100749.72
2022-10-30T08:15:13.626Z,100745.53
2022-10-30T08:17:47.309Z,100756.00
2022-10-30T08:20:16.901Z,100758.88
2022-10-30T08:22:48.882Z,100758.75
2022-10-30T08:25:18.306Z,100751.03
2022-10-30T08:27:57.009Z,100751.94
2022-10-30T08:30:26.315Z,100753.00
2022-10-30T08:32:58.438Z,100753.13
2022-10-30T08:35:26.602Z,100753.78
2022-10-30T08:37:56.604Z,100750.03
2022-10-30T08:40:25.169Z,100751.00
2022-10-30T08:42:53.259Z,100739.63
2022-10-30T08:45:25.094Z,100743.84
2022-10-30T08:48:01.713Z,100737.22
2022-10-30T08:50:29.958Z,100735.09
2022-10-30T08:52:58.111Z,100734.75
2022-10-30T08:55:26.165Z,100731.59
2022-10-30T08:57:53.927Z,100727.28
2022-10-30T09:00:21.859Z,100732.28
2022-10-30T09:02:49.599Z,100717.53
2022-10-30T09:05:19.078Z,100729.88
2022-10-30T09:07:47.133Z,100719.63
2022-10-30T09:10:15.539Z,100728.41
2022-10-30T09:12:43.450Z,100715.63
2022-10-30T09:15:11.372Z,100723.22
2022-10-30T09:17:39.197Z,100727.31
2022-10-30T09:20:07.528Z,100736.91
2022-10-30T09:22:41.668Z,100732.50
2022-10-30T09:25:10.327Z,100733.94
2022-10-30T09:27:39.390Z,100733.78
2022-10-30T09:30:08.632Z,100742.72
2022-10-30T09:32:36.459Z,100734.91
2022-10-30T09:35:04.541Z,100735.22
2022-10-30T09:37:36.778Z,100730.84
2022-10-30T09:40:05.577Z,100735.47
2022-10-30T09:42:42.939Z,100736.41
2022-10-30T09:45:49.269Z,100733.19
2022-10-30T09:48:53.068Z,100737.28
2022-10-30T09:51:44.088Z,100739.44
2022-10-30T09:54:19.983Z,100732.84
2022-10-30T09:56:54.108Z,100735.72
2022-10-30T09:59:36.382Z,100739.75
2022-10-30T10:02:21.192Z,100741.81
2022-10-30T10:04:53.581Z,100737.41
2022-10-30T10:07:24.292Z,100735.63
2022-10-30T10:09:58.042Z,100729.44
2022-10-30T10:12:34.241Z,100725.41
2022-10-30T10:15:08.288Z,100727.34
2022-10-30T10:17:42.640Z,100726.84
2022-10-30T10:20:17.538Z,100736.31
2022-10-30T10:22:49.765Z,100730.47
2022-10-30T10:25:21.398Z,100727.56
2022-10-30T10:27:59.787Z,100730.78
2022-10-30T10:30:33.930Z,100733.97
2022-10-30T10:35:56.174Z,100718.56
2022-10-30T10:38:35.868Z,100724.06
2022-10-30T10:41:13.647Z,100727.53
2022-10-30T10:43:58.414Z,100720.78
2022-10-30T10:46:39.191Z,100726.00
2022-10-30T10:49:25.314Z,100724.88
2022-10-30T10:51:57.790Z,100724.25
2022-10-30T10:54:28.372Z,100711.28
2022-10-30T10:56:59.639Z,100710.63
2022-10-30T10:59:35.156Z,100716.94
2022-10-30T11:02:25.671Z,100715.72
2022-10-30T11:04:56.703Z,100722.00
2022-10-30T11:07:27.967Z,100711.78
2022-10-30T11:09:57.418Z,100711.34
2022-10-30T11:12:33.730Z,100723.19
2022-10-30T11:15:22.966Z,100714.94
2022-10-30T11:17:55.871Z,100707.66
2022-10-30T11:20:32.181Z,100705.41
2022-10-30T11:23:00.458Z,100704.31
2022-10-30T11:25:35.625Z,100707.56
2022-10-30T11:28:06.873Z,100703.44
2022-10-30T11:30:34.712Z,100701.31
2022-10-30T11:33:22.970Z,100696.06
2022-10-30T11:35:50.917Z,100698.59
2022-10-30T11:38:21.301Z,100700.19
2022-10-30T11:40:52.659Z,100690.06
2022-10-30T11:43:25.505Z,100692.41
2022-10-30T11:45:53.936Z,100694.34
2022-10-30T11:48:27.183Z,100692.31
2022-10-30T11:50:59.868Z,100688.16
2022-10-30T11:53:34.127Z,100685.56
2022-10-30T11:56:03.589Z,100688.41
2022-10-30T11:58:36.054Z,100689.47
2022-10-30T12:01:07.217Z,100685.50
2022-10-30T12:03:37.683Z,100684.53
2022-10-30T12:06:10.998Z,100671.88
2022-10-30T12:08:39.040Z,100668.06
2022-10-30T12:11:07.731Z,100670.19
2022-10-30T12:13:41.234Z,100666.06
2022-10-30T12:16:14.359Z,100663.59
2022-10-30T12:18:42.826Z,100667.56
2022-10-30T12:21:12.129Z,100673.88
2022-10-30T12:23:41.199Z,100669.47
2022-10-30T12:26:12.271Z,100656.25
2022-10-30T12:28:56.542Z,100655.41
2022-10-30T12:31:30.256Z,100653.13
2022-10-30T12:34:19.209Z,100650.78
2022-10-30T12:36:51.675Z,100648.25
2022-10-30T12:39:25.133Z,100644.88
2022-10-30T12:42:00.520Z,100647.31
2022-10-30T12:44:35.131Z,100647.75
2022-10-30T12:47:07.655Z,100639.09
2022-10-30T12:49:42.252Z,100632.97
2022-10-30T12:52:17.771Z,100632.28
2022-10-30T12:54:53.314Z,100634.63
2022-10-30T12:57:26.397Z,100630.00
2022-10-30T13:00:03.493Z,100626.03
2022-10-30T13:02:43.874Z,100627.84
2022-10-30T13:05:25.393Z,100629.16
2022-10-30T13:08:01.892Z,100631.91
2022-10-30T13:10:35.380Z,100626.69
2022-10-30T13:13:10.907Z,100626.03
2022-10-30T13:15:45.968Z,100622.47
2022-10-30T13:18:18.943Z,100612.91
2022-10-30T13:21:18.070Z,100621.09
2022-10-30T13:23:52.684Z,100613.75
2022-10-30T13:26:35.076Z,100613.09
2022-10-30T13:29:08.019Z,100610.56
2022-10-30T13:31:44.945Z,100607.22
2022-10-30T13:34:26.376Z,100613.09
2022-10-30T13:36:59.852Z,100604.94
2022-10-30T13:39:35.650Z,100617.72
2022-10-30T13:42:19.169Z,100610.63
2022-10-30T13:44:57.303Z,100613.53
2022-10-30T13:47:38.051Z,100614.53
2022-10-30T13:50:18.817Z,100610.97
2022-10-30T13:52:53.530Z,100612.81
2022-10-30T13:55:26.871Z,100606.31
2022-10-30T13:58:03.382Z,100611.88
2022-10-30T14:00:48.285Z,100603.94
2022-10-30T14:03:29.428Z,100607.25
2022-10-30T14:06:08.956Z,100605.75
2022-10-30T14:08:42.253Z,100618.81
2022-10-30T14:11:14.291Z,100611.41
2022-10-30T14:13:55.367Z,100610.19
2022-10-30T14:16:35.630Z,100615.09
2022-10-30T14:19:06.876Z,100604.41
2022-10-30T14:21:43.913Z,100608.91
2022-10-30T14:24:21.463Z,100617.47
2022-10-30T14:26:55.908Z,100612.56
2022-10-30T14:29:42.834Z,100616.56
2022-10-30T14:32:36.478Z,100615.13
2022-10-30T14:35:33.237Z,100611.56
2022-10-30T14:38:17.676Z,100613.19
2022-10-30T14:41:08.332Z,100611.59
2022-10-30T14:43:49.968Z,100599.00
2022-10-30T14:46:26.789Z,100601.19
2022-10-30T14:49:03.528Z,100602.97
2022-10-30T14:51:42.404Z,100603.81
2022-10-30T14:54:22.805Z,100595.03
2022-10-30T14:56:52.720Z,100599.34
2022-10-30T14:59:31.601Z,100600.91
2022-10-30T15:02:12.664Z,100610.16
2022-10-30T15:04:58.319Z,100610.63
2022-10-30T15:07:35.485Z,100615.75
2022-10-30T15:10:17.632Z,100611.91
2022-10-30T15:13:03.479Z,100613.31
2022-10-30T15:15:32.259Z,100611.38
2022-10-30T15:18:04.121Z,100615.84
2022-10-30T15:20:34.276Z,100615.38
2022-10-30T15:23:08.593Z,100617.13
2022-10-30T15:25:39.617Z,100617.69
2022-10-30T15:28:07.747Z,100615.06
2022-10-30T15:30:35.584Z,100614.25
2022-10-30T15:33:03.673Z,100619.06
2022-10-30T15:35:31.585Z,100609.06
2022-10-30T15:38:06.228Z,100618.44
2022-10-30T15:40:36.234Z,100609.91
2022-10-30T15:43:06.417Z,100610.97
2022-10-30T15:45:36.297Z,100614.28
2022-10-30T15:48:09.176Z,100610.66
2022-10-30T15:50:42.160Z,100614.38
2022-10-30T15:53:19.642Z,100615.13
2022-10-30T15:55:48.193Z,100613.81
2022-10-30T15:58:19.681Z,100611.81
2022-10-30T16:00:57.542Z,100620.63
2022-10-30T16:03:26.026Z,100623.19
2022-10-30T16:06:05.183Z,100623.56
2022-10-30T16:08:44.817Z,100624.78
2022-10-30T16:11:13.167Z,100633.53
2022-10-30T16:13:41.343Z,100623.91
2022-10-30T16:18:44.936Z,100629.31
2022-10-30T16:21:17.805Z,100628.31
2022-10-30T16:23:51.853Z,100633.69
2022-10-30T16:26:27.515Z,100630.50
2022-10-30T16:28:55.378Z,100633.88
2022-10-30T16:31:24.747Z,100633.03
2022-10-30T16:33:53.507Z,100643.81
2022-10-30T16:36:21.539Z,100645.47
2022-10-30T16:38:51.515Z,100639.22
2022-10-30T16:41:25.736Z,100645.59
2022-10-30T16:44:15.445Z,100648.91
2022-10-30T16:46:53.184Z,100647.53
2022-10-30T16:49:23.784Z,100647.66
2022-10-30T16:51:57.464Z,100656.19
2022-10-30T16:54:30.036Z,100661.50
2022-10-30T16:56:59.206Z,100658.63
2022-10-30T16:59:34.696Z,100658.97
2022-10-30T17:02:06.392Z,100663.13
2022-10-30T17:04:36.298Z,100662.06
2022-10-30T17:07:07.800Z,100662.72
2022-10-30T17:09:39.632Z,100672.25
2022-10-30T17:12:16.812Z,100678.13
2022-10-30T17:14:48.501Z,100679.59
2022-10-30T17:17:28.279Z,100676.69
2022-10-30T17:20:05.527Z,100682.38
2022-10-30T17:22:34.020Z,100680.13
2022-10-30T17:25:15.535Z,100688.34
2022-10-30T17:27:47.212Z,100689.66
2022-10-30T17:30:31.912Z,100686.56
2022-10-30T17:33:00.150Z,100694.66
2022-10-30T17:35:28.493Z,100699.34
2022-10-30T17:37:59.722Z,100696.81
2022-10-30T17:40:31.938Z,100691.91
2022-10-30T17:42:59.770Z,100698.44
2022-10-30T17:45:27.520Z,100704.13
2022-10-30T17:47:55.314Z,100699.75
2022-10-30T17:50:23.170Z,100703.59
2022-10-30T17:52:51.159Z,100704.56
2022-10-30T17:55:27.552Z,100711.25
2022-10-30T17:57:56.759Z,100709.72
2022-10-30T18:00:24.583Z,100715.09
2022-10-30T18:02:52.528Z,100711.41
2022-10-30T18:05:23.849Z,100720.34
2022-10-30T18:07:51.652Z,100738.47
2022-10-30T18:10:19.490Z,100743.03
2022-10-30T18:12:47.357Z,100744.09
2022-10-30T18:15:34.469Z,100750.59
2022-10-30T18:18:02.571Z,100752.63
2022-10-30T18:20:30.932Z,100751.53
2022-10-30T18:22:59.413Z,100758.94
2022-10-30T18:25:31.576Z,100757.97
2022-10-30T18:27:59.583Z,100757.03
2022-10-30T18:30:29.148Z,100760.56
2022-10-30T18:32:58.142Z,100763.00
2022-10-30T18:35:29.890Z,100769.91
2022-10-30T18:37:57.809Z,100755.22
2022-10-30T18:40:25.812Z,100763.44
2022-10-30T18:42:53.573Z,100760.19
2022-10-30T18:45:24.748Z,100762.59
2022-10-30T18:47:55.167Z,100759.50
2022-10-30T18:50:24.726Z,100756.53
2022-10-30T18:52:52.496Z,100763.72
2022-10-30T18:55:22.927Z,100763.59
2022-10-30T18:57:51.679Z,100763.19
2022-10-30T19:00:23.101Z,100765.00
2022-10-30T19:02:51.092Z,100774.31
2022-10-30T19:05:26.689Z,100770.09
2022-10-30T19:07:54.872Z,100776.72
2022-10-30T19:10:22.946Z,100792.53
2022-10-30T19:13:10.970Z,100782.88
2022-10-30T19:15:40.631Z,100783.44
2022-10-30T19:18:08.491Z,100773.41
2022-10-30T19:21:02.660Z,100783.41
2022-10-30T19:23:26.770Z,100784.66
2022-10-30T19:25:54.789Z,100786.78
2022-10-30T19:28:22.545Z,100785.19
2022-10-30T19:30:51.257Z,100787.16
2022-10-30T19:33:20.040Z,100781.81
2022-10-30T19:35:54.669Z,100782.09
2022-10-30T19:38:23.879Z,100795.75
2022-10-30T19:40:51.955Z,100796.03
2022-10-30T19:43:19.958Z,100792.78
2022-10-30T19:45:51.280Z,100791.06
2022-10-30T19:48:40.439Z,100798.53
2022-10-30T19:51:12.570Z,100798.81
2022-10-30T19:53:40.324Z,100802.28
2022-10-30T19:56:10.507Z,100806.31
2022-10-30T19:58:38.347Z,100800.59
2022-10-30T20:01:06.329Z,100796.03
2022-10-30T20:03:34.163Z,100795.72
2022-10-30T20:06:02.040Z,100797.91
2022-10-30T20:08:31.225Z,100796.97
2022-10-30T20:11:00.943Z,100791.25
2022-10-30T20:13:29.907Z,100797.31
2022-10-30T20:16:00.361Z,100792.69
2022-10-30T20:18:31.575Z,100805.47
2022-10-30T20:21:01.488Z,100816.06
2022-10-30T20:23:31.023Z,100806.78
2022-10-30T20:26:01.594Z,100811.63
2022-10-30T20:28:32.386Z,100804.47
2022-10-30T20:31:00.185Z,100811.25
2022-10-30T20:33:28.508Z,100806.72
2022-10-30T20:35:56.734Z,100810.53
2022-10-30T20:38:26.355Z,100813.75
2022-10-30T20:40:56.354Z,100821.78
2022-10-30T20:43:29.746Z,100824.47
2022-10-30T20:45:58.437Z,100822.31
2022-10-30T20:48:26.535Z,100813.44
2022-10-30T20:50:54.781Z,100824.03
2022-10-30T20:53:22.622Z,100823.25
2022-10-30T20:55:50.444Z,100823.97
2022-10-30T20:58:19.771Z,100826.09
2022-10-30T21:00:48.238Z,100821.81
2022-10-30T21:03:16.462Z,100825.59
2022-10-30T21:05:46.287Z,100823.44
2022-10-30T21:08:14.896Z,100825.13
2022-10-30T21:10:43.234Z,100831.34
2022-10-30T21:13:11.631Z,100833.03
2022-10-30T21:15:42.624Z,100836.09
2022-10-30T21:18:11.375Z,100840.00
2022-10-30T21:20:39.208Z,100840.53
2022-10-30T21:23:07.340Z,100841.25
2022-10-30T21:25:35.736Z,100847.94
2022-10-30T21:28:04.096Z,100849.78
2022-10-30T21:30:32.147Z,100848.34
2022-10-30T21:33:01.633Z,100839.31
2022-10-30T21:35:29.729Z,100843.81
2022-10-30T21:37:57.509Z,100839.31
2022-10-30T21:40:25.282Z,100849.06
2022-10-30T21:42:52.988Z,100845.50
2022-10-30T21:45:20.733Z,100842.13
2022-10-30T21:47:52.867Z,100843.00
2022-10-30T21:50:21.977Z,100845.91
2022-10-30T21:52:49.800Z,100850.78
2022-10-30T21:55:17.574Z,100844.13
2022-10-30T21:57:45.341Z,100851.44
2022-10-30T22:00:14.482Z,100852.31
2022-10-30T22:02:42.532Z,100854.88
2022-10-30T22:05:10.679Z,100849.31
2022-10-30T22:07:39.796Z,100840.91
2022-10-30T22:10:08.958Z,100840.56
2022-10-30T22:12:36.725Z,100849.06
2022-10-30T22:15:05.057Z,100848.44
2022-10-30T22:17:34.874Z,100846.50
2022-10-30T22:20:02.992Z,100845.44
2022-10-30T22:22:30.908Z,100839.09
2022-10-30T22:25:00.038Z,100843.59
2022-10-30T22:27:27.981Z,100846.38
2022-10-30T22:29:55.805Z,100852.44
2022-10-30T22:32:24.099Z,100846.50
2022-10-30T22:34:51.921Z,100844.81
2022-10-30T22:37:19.638Z,100841.53
2022-10-30T22:39:47.517Z,100842.63
2022-10-30T22:42:16.971Z,100836.56
2022-10-30T22:44:45.144Z,100835.91
2022-10-30T22:47:13.004Z,100836.91
2022-10-30T22:49:40.915Z,100836.19
2022-10-30T22:52:08.862Z,100837.25
2022-10-30T22:54:36.700Z,100838.34
2022-10-30T22:57:04.885Z,100840.50
2022-10-30T22:59:34.174Z,100844.28
2022-10-30T23:02:02.012Z,100843.53
2022-10-30T23:04:29.932Z,100842.81
2022-10-30T23:06:57.871Z,100836.38
2022-10-30T23:09:25.700Z,100841.81
2022-10-30T23:11:53.771Z,100844.50
2022-10-30T23:14:21.683Z,100846.31
2022-10-30T23:16:51.005Z,100843.66
2022-10-30T23:19:19.017Z,100848.25
2022-10-30T23:21:47.007Z,100843.88
2022-10-30T23:24:14.844Z,100851.63
2022-10-30T23:26:42.865Z,100855.72
2022-10-30T23:29:10.777Z,100853.03
2022-10-30T23:31:40.262Z,100855.91
2022-10-30T23:34:11.968Z,100849.84
2022-10-30T23:36:40.130Z,100847.69
2022-10-30T23:39:09.612Z,100846.22
2022-10-30T23:41:37.785Z,100847.19
2022-10-30T23:44:07.952Z,100845.88
2022-10-30T23:46:36.929Z,100845.28
2022-10-30T23:49:05.937Z,100845.78
2022-10-30T23:51:35.721Z,100841.06
2022-10-30T23:54:03.986Z,100843.63
2022-10-30T23:56:31.977Z,100849.91
2022-10-30T23:58:59.851Z,100849.06
